sensor_id;sensor_type;location;lat;lon;timestamp;pressure;altitude;pressure_sealevel;temperature;humidity
70254;BME280;57649;42.968;1.608;2023-06-22T00:01:22;96964.88;;;20.21;100.00
70254;BME280;57649;42.968;1.608;2023-06-22T00:03:48;96971.47;;;20.25;100.00
70254;BME280;57649;42.968;1.608;2023-06-22T00:06:14;96973.84;;;20.22;100.00
70254;BME280;57649;42.968;1.608;2023-06-22T00:08:40;96977.72;;;20.26;100.00
70254;BME280;57649;42.968;1.608;2023-06-22T00:11:05;96954.97;;;20.15;100.00
70254;BME280;57649;42.968;1.608;2023-06-22T00:13:31;96962.84;;;20.16;100.00
70254;BME280;57649;42.968;1.608;2023-06-22T00:15:56;96960.06;;;20.11;100.00
70254;BME280;57649;42.968;1.608;2023-06-22T00:18:21;96959.56;;;20.14;100.00
70254;BME280;57649;42.968;1.608;2023-06-22T00:20:47;96957.19;;;20.18;100.00
70254;BME280;57649;42.968;1.608;2023-06-22T00:23:12;96941.84;;;20.12;100.00
70254;BME280;57649;42.968;1.608;2023-06-22T00:25:41;96948.56;;;20.09;100.00
70254;BME280;57649;42.968;1.608;2023-06-22T00:28:06;96946.00;;;20.03;100.00
70254;BME280;57649;42.968;1.608;2023-06-22T00:30:33;96950.00;;;20.00;100.00
70254;BME280;57649;42.968;1.608;2023-06-22T00:32:59;96955.72;;;19.98;100.00
70254;BME280;57649;42.968;1.608;2023-06-22T00:35:26;96963.25;;;19.96;100.00
70254;BME280;57649;42.968;1.608;2023-06-22T00:37:55;96972.81;;;19.99;100.00
70254;BME280;57649;42.968;1.608;2023-06-22T00:40:27;96971.91;;;19.93;100.00
70254;BME280;57649;42.968;1.608;2023-06-22T00:42:52;96986.03;;;19.72;100.00
70254;BME280;57649;42.968;1.608;2023-06-22T00:45:17;96982.16;;;19.68;100.00
70254;BME280;57649;42.968;1.608;2023-06-22T00:47:43;96972.22;;;19.61;100.00
70254;BME280;57649;42.968;1.608;2023-06-22T00:50:13;96986.88;;;19.72;100.00
70254;BME280;57649;42.968;1.608;2023-06-22T00:52:43;97011.59;;;19.83;100.00
70254;BME280;57649;42.968;1.608;2023-06-22T00:55:11;97002.84;;;19.80;100.00
70254;BME280;57649;42.968;1.608;2023-06-22T00:57:37;97007.09;;;19.76;100.00
70254;BME280;57649;42.968;1.608;2023-06-22T01:00:03;97028.34;;;19.79;100.00
70254;BME280;57649;42.968;1.608;2023-06-22T01:02:32;97030.00;;;19.80;100.00
70254;BME280;57649;42.968;1.608;2023-06-22T01:04:57;97035.91;;;19.77;100.00
70254;BME280;57649;42.968;1.608;2023-06-22T01:07:35;97053.72;;;19.85;100.00
70254;BME280;57649;42.968;1.608;2023-06-22T01:10:16;97060.81;;;19.86;100.00
70254;BME280;57649;42.968;1.608;2023-06-22T01:12:52;97065.78;;;19.77;100.00
70254;BME280;57649;42.968;1.608;2023-06-22T01:15:24;97063.97;;;19.71;100.00
70254;BME280;57649;42.968;1.608;2023-06-22T01:17:52;97050.41;;;19.71;100.00
70254;BME280;57649;42.968;1.608;2023-06-22T01:20:19;97053.44;;;19.63;100.00
70254;BME280;57649;42.968;1.608;2023-06-22T01:25:22;97044.25;;;19.64;100.00
70254;BME280;57649;42.968;1.608;2023-06-22T01:27:59;97058.19;;;19.68;100.00
70254;BME280;57649;42.968;1.608;2023-06-22T01:30:27;97065.03;;;19.70;100.00
70254;BME280;57649;42.968;1.608;2023-06-22T01:32:56;97082.41;;;19.69;100.00
70254;BME280;57649;42.968;1.608;2023-06-22T01:35:22;97085.25;;;19.74;100.00
70254;BME280;57649;42.968;1.608;2023-06-22T01:37:49;97094.47;;;19.73;100.00
70254;BME280;57649;42.968;1.608;2023-06-22T01:40:15;97111.50;;;19.80;100.00
70254;BME280;57649;42.968;1.608;2023-06-22T01:42:41;97106.16;;;19.74;100.00
70254;BME280;57649;42.968;1.608;2023-06-22T01:45:09;97104.38;;;19.79;100.00
70254;BME280;57649;42.968;1.608;2023-06-22T01:47:35;97117.97;;;19.79;100.00
70254;BME280;57649;42.968;1.608;2023-06-22T01:50:01;97121.53;;;19.80;100.00
70254;BME280;57649;42.968;1.608;2023-06-22T01:52:26;97130.38;;;19.75;100.00
70254;BME280;57649;42.968;1.608;2023-06-22T01:54:52;97139.34;;;19.76;100.00
70254;BME280;57649;42.968;1.608;2023-06-22T01:57:17;97135.56;;;19.77;100.00
70254;BME280;57649;42.968;1.608;2023-06-22T02:00:12;97142.91;;;19.76;100.00
70254;BME280;57649;42.968;1.608;2023-06-22T02:02:45;97143.25;;;19.80;100.00
70254;BME280;57649;42.968;1.608;2023-06-22T02:05:16;97165.09;;;19.85;100.00
70254;BME280;57649;42.968;1.608;2023-06-22T02:08:17;97169.72;;;19.85;100.00
70254;BME280;57649;42.968;1.608;2023-06-22T02:10:42;97176.69;;;19.80;100.00
70254;BME280;57649;42.968;1.608;2023-06-22T02:13:09;97181.88;;;19.82;100.00
70254;BME280;57649;42.968;1.608;2023-06-22T02:15:35;97186.59;;;19.87;100.00
70254;BME280;57649;42.968;1.608;2023-06-22T02:18:01;97179.84;;;19.77;100.00
70254;BME280;57649;42.968;1.608;2023-06-22T02:20:27;97184.09;;;19.73;100.00
70254;BME280;57649;42.968;1.608;2023-06-22T02:22:52;97165.72;;;19.69;100.00
70254;BME280;57649;42.968;1.608;2023-06-22T02:25:18;97170.06;;;19.58;100.00
70254;BME280;57649;42.968;1.608;2023-06-22T02:27:44;97189.91;;;19.58;100.00
70254;BME280;57649;42.968;1.608;2023-06-22T02:30:10;97232.78;;;19.56;100.00
70254;BME280;57649;42.968;1.608;2023-06-22T02:32:35;97235.94;;;19.53;100.00
70254;BME280;57649;42.968;1.608;2023-06-22T02:35:01;97223.41;;;19.52;100.00
70254;BME280;57649;42.968;1.608;2023-06-22T02:37:31;97223.41;;;19.52;100.00
70254;BME280;57649;42.968;1.608;2023-06-22T02:39:56;97223.03;;;19.49;100.00
70254;BME280;57649;42.968;1.608;2023-06-22T02:42:22;97221.47;;;19.41;100.00
70254;BME280;57649;42.968;1.608;2023-06-22T02:44:47;97224.94;;;19.48;100.00
70254;BME280;57649;42.968;1.608;2023-06-22T02:47:13;97223.97;;;19.42;100.00
70254;BME280;57649;42.968;1.608;2023-06-22T02:49:39;97218.16;;;19.39;100.00
70254;BME280;57649;42.968;1.608;2023-06-22T02:52:04;97218.38;;;19.37;100.00
70254;BME280;57649;42.968;1.608;2023-06-22T02:54:30;97231.66;;;19.46;100.00
70254;BME280;57649;42.968;1.608;2023-06-22T02:56:55;97225.72;;;19.37;100.00
70254;BME280;57649;42.968;1.608;2023-06-22T02:59:21;97239.84;;;19.27;100.00
70254;BME280;57649;42.968;1.608;2023-06-22T03:01:49;97241.63;;;19.33;100.00
70254;BME280;57649;42.968;1.608;2023-06-22T03:04:15;97239.06;;;19.38;100.00
70254;BME280;57649;42.968;1.608;2023-06-22T03:06:41;97244.84;;;19.42;100.00
70254;BME280;57649;42.968;1.608;2023-06-22T03:09:07;97249.44;;;19.41;100.00
70254;BME280;57649;42.968;1.608;2023-06-22T03:11:33;97251.56;;;19.39;100.00
70254;BME280;57649;42.968;1.608;2023-06-22T03:13:59;97252.03;;;19.36;100.00
70254;BME280;57649;42.968;1.608;2023-06-22T03:16:25;97251.72;;;19.26;100.00
70254;BME280;57649;42.968;1.608;2023-06-22T03:18:51;97255.63;;;19.30;100.00
70254;BME280;57649;42.968;1.608;2023-06-22T03:21:16;97256.88;;;19.34;100.00
70254;BME280;57649;42.968;1.608;2023-06-22T03:23:42;97246.97;;;19.40;100.00
70254;BME280;57649;42.968;1.608;2023-06-22T03:26:09;97234.06;;;19.35;100.00
70254;BME280;57649;42.968;1.608;2023-06-22T03:28:35;97221.56;;;19.34;100.00
70254;BME280;57649;42.968;1.608;2023-06-22T03:31:00;97225.84;;;19.42;99.97
70254;BME280;57649;42.968;1.608;2023-06-22T03:33:25;97207.09;;;19.40;99.28
70254;BME280;57649;42.968;1.608;2023-06-22T03:35:51;97215.41;;;19.57;99.49
70254;BME280;57649;42.968;1.608;2023-06-22T03:38:17;97188.59;;;19.49;99.40
70254;BME280;57649;42.968;1.608;2023-06-22T03:40:42;97170.41;;;19.50;97.12
70254;BME280;57649;42.968;1.608;2023-06-22T03:43:08;97182.09;;;19.50;96.61
70254;BME280;57649;42.968;1.608;2023-06-22T03:45:33;97211.81;;;19.45;97.75
70254;BME280;57649;42.968;1.608;2023-06-22T03:48:00;97223.75;;;19.44;97.02
70254;BME280;57649;42.968;1.608;2023-06-22T03:50:25;97234.75;;;19.49;97.57
70254;BME280;57649;42.968;1.608;2023-06-22T03:52:50;97250.94;;;19.56;98.73
70254;BME280;57649;42.968;1.608;2023-06-22T03:55:17;97233.81;;;19.55;96.32
70254;BME280;57649;42.968;1.608;2023-06-22T03:57:43;97239.25;;;19.55;96.95
70254;BME280;57649;42.968;1.608;2023-06-22T04:00:08;97233.53;;;19.45;95.69
70254;BME280;57649;42.968;1.608;2023-06-22T04:02:35;97233.31;;;19.47;94.63
70254;BME280;57649;42.968;1.608;2023-06-22T04:05:00;97234.53;;;19.32;96.25
70254;BME280;57649;42.968;1.608;2023-06-22T04:07:26;97229.94;;;19.33;96.12
70254;BME280;57649;42.968;1.608;2023-06-22T04:09:51;97225.13;;;19.35;95.74
70254;BME280;57649;42.968;1.608;2023-06-22T04:12:17;97228.34;;;19.43;96.99
70254;BME280;57649;42.968;1.608;2023-06-22T04:14:42;97244.38;;;19.45;94.31
70254;BME280;57649;42.968;1.608;2023-06-22T04:17:07;97244.25;;;19.40;95.60
70254;BME280;57649;42.968;1.608;2023-06-22T04:19:33;97244.84;;;19.42;94.05
70254;BME280;57649;42.968;1.608;2023-06-22T04:21:58;97268.97;;;19.50;94.61
70254;BME280;57649;42.968;1.608;2023-06-22T04:24:24;97253.81;;;19.42;95.33
70254;BME280;57649;42.968;1.608;2023-06-22T04:26:49;97254.56;;;19.50;93.39
70254;BME280;57649;42.968;1.608;2023-06-22T04:29:18;97262.13;;;19.48;94.12
70254;BME280;57649;42.968;1.608;2023-06-22T04:31:44;97263.75;;;19.49;93.97
70254;BME280;57649;42.968;1.608;2023-06-22T04:34:09;97254.97;;;19.65;93.97
70254;BME280;57649;42.968;1.608;2023-06-22T04:36:39;97243.38;;;19.58;93.17
70254;BME280;57649;42.968;1.608;2023-06-22T04:39:10;97251.66;;;19.63;94.13
70254;BME280;57649;42.968;1.608;2023-06-22T04:41:36;97245.41;;;19.62;95.08
70254;BME280;57649;42.968;1.608;2023-06-22T04:44:18;97225.22;;;19.58;94.87
70254;BME280;57649;42.968;1.608;2023-06-22T04:46:53;97218.72;;;19.59;95.95
70254;BME280;57649;42.968;1.608;2023-06-22T04:49:20;97219.28;;;19.50;97.86
70254;BME280;57649;42.968;1.608;2023-06-22T04:51:46;97218.53;;;19.42;99.98
70254;BME280;57649;42.968;1.608;2023-06-22T04:54:12;97246.50;;;19.43;100.00
70254;BME280;57649;42.968;1.608;2023-06-22T04:56:37;97254.38;;;19.33;100.00
70254;BME280;57649;42.968;1.608;2023-06-22T04:59:03;97254.00;;;19.11;100.00
70254;BME280;57649;42.968;1.608;2023-06-22T05:01:29;97258.69;;;19.03;100.00
70254;BME280;57649;42.968;1.608;2023-06-22T05:03:56;97269.38;;;18.98;100.00
70254;BME280;57649;42.968;1.608;2023-06-22T05:06:22;97259.34;;;18.99;100.00
70254;BME280;57649;42.968;1.608;2023-06-22T05:08:54;97267.78;;;19.09;100.00
70254;BME280;57649;42.968;1.608;2023-06-22T05:11:27;97286.47;;;19.17;100.00
70254;BME280;57649;42.968;1.608;2023-06-22T05:13:53;97295.38;;;19.06;100.00
70254;BME280;57649;42.968;1.608;2023-06-22T05:16:19;97296.50;;;19.17;100.00
70254;BME280;57649;42.968;1.608;2023-06-22T05:18:53;97292.44;;;19.26;100.00
70254;BME280;57649;42.968;1.608;2023-06-22T05:21:23;97297.56;;;19.34;100.00
70254;BME280;57649;42.968;1.608;2023-06-22T05:23:50;97297.94;;;19.38;100.00
70254;BME280;57649;42.968;1.608;2023-06-22T05:26:15;97300.28;;;19.53;100.00
70254;BME280;57649;42.968;1.608;2023-06-22T05:28:41;97293.03;;;19.47;100.00
70254;BME280;57649;42.968;1.608;2023-06-22T05:31:06;97292.13;;;19.53;100.00
70254;BME280;57649;42.968;1.608;2023-06-22T05:33:31;97291.16;;;19.47;100.00
70254;BME280;57649;42.968;1.608;2023-06-22T05:35:57;97285.19;;;19.57;100.00
70254;BME280;57649;42.968;1.608;2023-06-22T05:38:22;97293.16;;;19.70;100.00
70254;BME280;57649;42.968;1.608;2023-06-22T05:40:48;97291.66;;;19.74;100.00
70254;BME280;57649;42.968;1.608;2023-06-22T05:43:14;97284.38;;;19.87;100.00
70254;BME280;57649;42.968;1.608;2023-06-22T05:45:39;97292.81;;;19.97;100.00
70254;BME280;57649;42.968;1.608;2023-06-22T05:48:05;97280.66;;;19.99;100.00
70254;BME280;57649;42.968;1.608;2023-06-22T05:50:30;97297.00;;;20.11;99.90
70254;BME280;57649;42.968;1.608;2023-06-22T05:52:55;97288.91;;;20.35;100.00
70254;BME280;57649;42.968;1.608;2023-06-22T05:55:21;97292.53;;;20.29;98.54
70254;BME280;57649;42.968;1.608;2023-06-22T05:57:46;97292.78;;;20.27;98.57
70254;BME280;57649;42.968;1.608;2023-06-22T06:00:12;97285.19;;;20.17;97.98
70254;BME280;57649;42.968;1.608;2023-06-22T06:02:38;97291.59;;;20.23;96.50
70254;BME280;57649;42.968;1.608;2023-06-22T06:05:10;97283.34;;;20.30;96.56
70254;BME280;57649;42.968;1.608;2023-06-22T06:07:36;97289.38;;;20.32;95.83
70254;BME280;57649;42.968;1.608;2023-06-22T06:10:03;97291.63;;;20.47;96.92
70254;BME280;57649;42.968;1.608;2023-06-22T06:12:29;97298.13;;;20.34;96.00
70254;BME280;57649;42.968;1.608;2023-06-22T06:14:55;97297.81;;;20.54;94.51
70254;BME280;57649;42.968;1.608;2023-06-22T06:17:21;97306.50;;;20.32;95.10
70254;BME280;57649;42.968;1.608;2023-06-22T06:19:47;97312.75;;;20.33;94.35
70254;BME280;57649;42.968;1.608;2023-06-22T06:22:12;97313.84;;;20.32;94.28
70254;BME280;57649;42.968;1.608;2023-06-22T06:24:38;97322.25;;;20.42;93.88
70254;BME280;57649;42.968;1.608;2023-06-22T06:27:03;97325.59;;;20.56;93.31
70254;BME280;57649;42.968;1.608;2023-06-22T06:29:30;97327.97;;;20.64;92.82
70254;BME280;57649;42.968;1.608;2023-06-22T06:31:55;97329.72;;;20.58;94.63
70254;BME280;57649;42.968;1.608;2023-06-22T06:34:22;97329.28;;;20.62;93.27
70254;BME280;57649;42.968;1.608;2023-06-22T06:36:47;97334.84;;;20.67;93.65
70254;BME280;57649;42.968;1.608;2023-06-22T06:39:13;97334.28;;;20.88;94.66
70254;BME280;57649;42.968;1.608;2023-06-22T06:41:38;97339.75;;;20.88;94.54
70254;BME280;57649;42.968;1.608;2023-06-22T06:44:04;97344.09;;;20.89;95.60
70254;BME280;57649;42.968;1.608;2023-06-22T06:46:29;97339.03;;;20.81;95.19
70254;BME280;57649;42.968;1.608;2023-06-22T06:48:55;97346.81;;;20.89;95.15
70254;BME280;57649;42.968;1.608;2023-06-22T06:51:20;97354.53;;;20.92;95.83
70254;BME280;57649;42.968;1.608;2023-06-22T06:53:46;97341.03;;;20.74;95.31
70254;BME280;57649;42.968;1.608;2023-06-22T06:56:11;97346.47;;;20.86;96.64
70254;BME280;57649;42.968;1.608;2023-06-22T06:58:41;97348.50;;;20.90;90.66
70254;BME280;57649;42.968;1.608;2023-06-22T07:01:08;97351.41;;;20.77;90.74
70254;BME280;57649;42.968;1.608;2023-06-22T07:03:33;97347.91;;;20.88;91.14
70254;BME280;57649;42.968;1.608;2023-06-22T07:05:59;97350.63;;;20.88;92.07
70254;BME280;57649;42.968;1.608;2023-06-22T07:08:24;97350.13;;;20.91;91.02
70254;BME280;57649;42.968;1.608;2023-06-22T07:10:51;97361.25;;;20.90;91.33
70254;BME280;57649;42.968;1.608;2023-06-22T07:13:17;97359.34;;;20.79;90.25
70254;BME280;57649;42.968;1.608;2023-06-22T07:15:42;97366.22;;;20.81;91.97
70254;BME280;57649;42.968;1.608;2023-06-22T07:18:07;97358.81;;;20.58;90.47
70254;BME280;57649;42.968;1.608;2023-06-22T07:20:33;97367.63;;;20.72;92.06
70254;BME280;57649;42.968;1.608;2023-06-22T07:22:58;97357.56;;;20.72;91.31
70254;BME280;57649;42.968;1.608;2023-06-22T07:25:24;97355.34;;;20.39;91.74
70254;BME280;57649;42.968;1.608;2023-06-22T07:28:00;97366.47;;;20.49;92.46
70254;BME280;57649;42.968;1.608;2023-06-22T07:30:27;97376.88;;;20.52;93.03
70254;BME280;57649;42.968;1.608;2023-06-22T07:32:53;97376.22;;;20.57;93.41
70254;BME280;57649;42.968;1.608;2023-06-22T07:35:19;97383.38;;;20.51;93.39
70254;BME280;57649;42.968;1.608;2023-06-22T07:37:44;97378.50;;;20.42;94.27
70254;BME280;57649;42.968;1.608;2023-06-22T07:40:10;97388.47;;;20.48;95.15
70254;BME280;57649;42.968;1.608;2023-06-22T07:42:36;97390.94;;;20.49;94.73
70254;BME280;57649;42.968;1.608;2023-06-22T07:45:04;97397.59;;;20.53;94.61
70254;BME280;57649;42.968;1.608;2023-06-22T07:47:31;97397.13;;;20.56;95.63
70254;BME280;57649;42.968;1.608;2023-06-22T07:50:00;97408.75;;;20.64;94.36
70254;BME280;57649;42.968;1.608;2023-06-22T07:52:29;97396.97;;;20.70;96.22
70254;BME280;57649;42.968;1.608;2023-06-22T07:54:55;97410.06;;;20.61;95.56
70254;BME280;57649;42.968;1.608;2023-06-22T07:57:21;97414.78;;;20.66;96.06
70254;BME280;57649;42.968;1.608;2023-06-22T07:59:46;97427.25;;;20.73;94.49
70254;BME280;57649;42.968;1.608;2023-06-22T08:02:12;97429.38;;;20.83;95.60
70254;BME280;57649;42.968;1.608;2023-06-22T08:04:37;97428.88;;;20.74;94.67
70254;BME280;57649;42.968;1.608;2023-06-22T08:07:03;97430.06;;;20.67;96.07
70254;BME280;57649;42.968;1.608;2023-06-22T08:09:31;97414.56;;;20.67;95.88
70254;BME280;57649;42.968;1.608;2023-06-22T08:11:56;97413.75;;;20.67;97.02
70254;BME280;57649;42.968;1.608;2023-06-22T08:14:25;97418.28;;;20.85;96.35
70254;BME280;57649;42.968;1.608;2023-06-22T08:16:51;97410.97;;;21.09;95.04
70254;BME280;57649;42.968;1.608;2023-06-22T08:19:16;97418.06;;;21.10;93.53
70254;BME280;57649;42.968;1.608;2023-06-22T08:21:43;97421.75;;;21.27;90.83
70254;BME280;57649;42.968;1.608;2023-06-22T08:24:08;97422.22;;;21.24;91.45
70254;BME280;57649;42.968;1.608;2023-06-22T08:26:34;97426.03;;;21.23;89.89
70254;BME280;57649;42.968;1.608;2023-06-22T08:29:04;97427.88;;;21.23;92.06
70254;BME280;57649;42.968;1.608;2023-06-22T08:31:30;97423.75;;;21.20;93.33
70254;BME280;57649;42.968;1.608;2023-06-22T08:33:56;97430.72;;;21.04;95.38
70254;BME280;57649;42.968;1.608;2023-06-22T08:36:21;97438.81;;;20.81;97.10
70254;BME280;57649;42.968;1.608;2023-06-22T08:38:47;97436.47;;;20.84;94.92
70254;BME280;57649;42.968;1.608;2023-06-22T08:41:16;97444.31;;;20.92;95.38
70254;BME280;57649;42.968;1.608;2023-06-22T08:43:43;97442.91;;;21.02;93.62
70254;BME280;57649;42.968;1.608;2023-06-22T08:46:09;97440.84;;;20.73;92.94
70254;BME280;57649;42.968;1.608;2023-06-22T08:48:35;97453.94;;;20.65;94.25
70254;BME280;57649;42.968;1.608;2023-06-22T08:51:00;97456.88;;;20.63;94.69
70254;BME280;57649;42.968;1.608;2023-06-22T08:53:25;97449.84;;;20.25;95.50
70254;BME280;57649;42.968;1.608;2023-06-22T08:55:51;97463.81;;;20.29;97.32
70254;BME280;57649;42.968;1.608;2023-06-22T08:58:16;97466.25;;;20.18;98.74
70254;BME280;57649;42.968;1.608;2023-06-22T09:00:43;97472.31;;;20.02;100.00
70254;BME280;57649;42.968;1.608;2023-06-22T09:03:08;97478.22;;;19.74;100.00
70254;BME280;57649;42.968;1.608;2023-06-22T09:05:34;97489.38;;;19.40;100.00
70254;BME280;57649;42.968;1.608;2023-06-22T09:07:59;97487.84;;;19.26;100.00
70254;BME280;57649;42.968;1.608;2023-06-22T09:10:25;97491.44;;;19.20;100.00
70254;BME280;57649;42.968;1.608;2023-06-22T09:12:51;97493.19;;;19.08;100.00
70254;BME280;57649;42.968;1.608;2023-06-22T09:15:16;97488.78;;;19.13;100.00
70254;BME280;57649;42.968;1.608;2023-06-22T09:17:42;97503.09;;;19.27;100.00
70254;BME280;57649;42.968;1.608;2023-06-22T09:20:08;97502.53;;;19.43;100.00
70254;BME280;57649;42.968;1.608;2023-06-22T09:22:35;97511.44;;;19.51;100.00
70254;BME280;57649;42.968;1.608;2023-06-22T09:25:01;97511.19;;;19.52;100.00
70254;BME280;57649;42.968;1.608;2023-06-22T09:27:27;97524.06;;;19.64;100.00
70254;BME280;57649;42.968;1.608;2023-06-22T09:29:53;97531.09;;;19.71;100.00
70254;BME280;57649;42.968;1.608;2023-06-22T09:32:18;97524.06;;;19.64;100.00
70254;BME280;57649;42.968;1.608;2023-06-22T09:34:44;97529.97;;;19.54;100.00
70254;BME280;57649;42.968;1.608;2023-06-22T09:37:09;97524.59;;;19.72;100.00
70254;BME280;57649;42.968;1.608;2023-06-22T09:39:35;97527.13;;;19.74;100.00
70254;BME280;57649;42.968;1.608;2023-06-22T09:42:01;97527.84;;;19.88;100.00
70254;BME280;57649;42.968;1.608;2023-06-22T09:44:26;97523.59;;;20.10;100.00
70254;BME280;57649;42.968;1.608;2023-06-22T09:46:52;97532.78;;;19.91;100.00
70254;BME280;57649;42.968;1.608;2023-06-22T09:49:17;97527.38;;;19.91;100.00
70254;BME280;57649;42.968;1.608;2023-06-22T09:51:43;97530.63;;;20.18;100.00
70254;BME280;57649;42.968;1.608;2023-06-22T09:54:08;97524.13;;;20.37;100.00
70254;BME280;57649;42.968;1.608;2023-06-22T09:56:33;97531.59;;;20.42;100.00
70254;BME280;57649;42.968;1.608;2023-06-22T09:58:59;97526.63;;;20.39;100.00
70254;BME280;57649;42.968;1.608;2023-06-22T10:01:24;97525.44;;;20.35;100.00
70254;BME280;57649;42.968;1.608;2023-06-22T10:03:50;97532.56;;;20.85;100.00
70254;BME280;57649;42.968;1.608;2023-06-22T10:06:15;97537.47;;;20.76;100.00
70254;BME280;57649;42.968;1.608;2023-06-22T10:08:40;97536.19;;;21.09;100.00
70254;BME280;57649;42.968;1.608;2023-06-22T10:11:06;97535.28;;;21.39;100.00
70254;BME280;57649;42.968;1.608;2023-06-22T10:13:31;97532.97;;;21.78;100.00
70254;BME280;57649;42.968;1.608;2023-06-22T10:15:57;97524.34;;;21.92;100.00
70254;BME280;57649;42.968;1.608;2023-06-22T10:18:22;97540.31;;;21.77;100.00
70254;BME280;57649;42.968;1.608;2023-06-22T10:20:49;97529.69;;;21.87;100.00
70254;BME280;57649;42.968;1.608;2023-06-22T10:23:21;97533.94;;;21.71;100.00
70254;BME280;57649;42.968;1.608;2023-06-22T10:25:46;97535.59;;;21.84;100.00
70254;BME280;57649;42.968;1.608;2023-06-22T10:28:12;97541.66;;;21.75;100.00
70254;BME280;57649;42.968;1.608;2023-06-22T10:30:41;97535.28;;;21.39;99.01
70254;BME280;57649;42.968;1.608;2023-06-22T10:33:10;97547.31;;;21.61;96.43
70254;BME280;57649;42.968;1.608;2023-06-22T10:35:36;97545.88;;;21.70;97.19
70254;BME280;57649;42.968;1.608;2023-06-22T10:38:04;97557.50;;;22.01;100.00
70254;BME280;57649;42.968;1.608;2023-06-22T10:40:30;97554.75;;;22.25;98.52
70254;BME280;57649;42.968;1.608;2023-06-22T10:42:55;97548.97;;;22.09;100.00
70254;BME280;57649;42.968;1.608;2023-06-22T10:45:21;97556.66;;;22.36;100.00
70254;BME280;57649;42.968;1.608;2023-06-22T10:47:46;97558.84;;;22.63;96.83
70254;BME280;57649;42.968;1.608;2023-06-22T10:50:12;97567.69;;;22.53;95.36
70254;BME280;57649;42.968;1.608;2023-06-22T10:52:37;97567.69;;;22.41;92.99
70254;BME280;57649;42.968;1.608;2023-06-22T10:55:03;97568.03;;;22.57;98.53
70254;BME280;57649;42.968;1.608;2023-06-22T10:57:29;97562.75;;;22.67;94.74
70254;BME280;57649;42.968;1.608;2023-06-22T10:59:54;97567.91;;;22.52;93.09
70254;BME280;57649;42.968;1.608;2023-06-22T11:02:20;97568.91;;;22.74;90.77
70254;BME280;57649;42.968;1.608;2023-06-22T11:04:45;97574.59;;;22.73;91.09
70254;BME280;57649;42.968;1.608;2023-06-22T11:07:11;97570.81;;;22.74;91.23
70254;BME280;57649;42.968;1.608;2023-06-22T11:09:36;97575.28;;;22.80;91.74
70254;BME280;57649;42.968;1.608;2023-06-22T11:12:03;97573.84;;;22.48;88.59
70254;BME280;57649;42.968;1.608;2023-06-22T11:14:29;97582.16;;;22.30;88.88
70254;BME280;57649;42.968;1.608;2023-06-22T11:16:54;97575.13;;;22.58;92.15
70254;BME280;57649;42.968;1.608;2023-06-22T11:19:20;97579.13;;;22.67;92.37
70254;BME280;57649;42.968;1.608;2023-06-22T11:21:45;97572.63;;;22.68;89.01
70254;BME280;57649;42.968;1.608;2023-06-22T11:24:10;97580.47;;;22.53;86.20
70254;BME280;57649;42.968;1.608;2023-06-22T11:26:36;97575.09;;;22.98;86.49
70254;BME280;57649;42.968;1.608;2023-06-22T11:29:02;97570.16;;;22.95;86.03
70254;BME280;57649;42.968;1.608;2023-06-22T11:31:31;97574.63;;;23.01;83.61
70254;BME280;57649;42.968;1.608;2023-06-22T11:33:56;97573.09;;;23.05;87.91
70254;BME280;57649;42.968;1.608;2023-06-22T11:36:21;97575.44;;;23.14;86.86
70254;BME280;57649;42.968;1.608;2023-06-22T11:38:47;97574.69;;;23.18;88.35
70254;BME280;57649;42.968;1.608;2023-06-22T11:41:12;97561.09;;;23.69;86.89
70254;BME280;57649;42.968;1.608;2023-06-22T11:43:38;97562.44;;;23.83;81.78
70254;BME280;57649;42.968;1.608;2023-06-22T11:46:03;97560.63;;;24.50;79.31
70254;BME280;57649;42.968;1.608;2023-06-22T11:48:30;97552.59;;;24.21;75.05
70254;BME280;57649;42.968;1.608;2023-06-22T11:50:56;97555.28;;;24.38;76.72
70254;BME280;57649;42.968;1.608;2023-06-22T11:53:23;97548.72;;;24.39;75.29
70254;BME280;57649;42.968;1.608;2023-06-22T11:55:48;97547.28;;;24.54;75.86
70254;BME280;57649;42.968;1.608;2023-06-22T11:58:14;97549.34;;;24.47;76.90
70254;BME280;57649;42.968;1.608;2023-06-22T12:00:39;97550.88;;;24.37;75.31
70254;BME280;57649;42.968;1.608;2023-06-22T12:03:05;97551.47;;;24.84;75.53
70254;BME280;57649;42.968;1.608;2023-06-22T12:05:33;97547.84;;;24.78;73.55
70254;BME280;57649;42.968;1.608;2023-06-22T12:07:59;97555.00;;;24.79;75.12
70254;BME280;57649;42.968;1.608;2023-06-22T12:10:25;97551.09;;;24.97;72.60
70254;BME280;57649;42.968;1.608;2023-06-22T12:12:51;97550.63;;;25.05;72.16
70254;BME280;57649;42.968;1.608;2023-06-22T12:15:16;97537.31;;;25.79;72.00
70254;BME280;57649;42.968;1.608;2023-06-22T12:17:42;97538.66;;;25.16;70.35
70254;BME280;57649;42.968;1.608;2023-06-22T12:20:07;97537.13;;;24.71;70.04
70254;BME280;57649;42.968;1.608;2023-06-22T12:22:33;97529.91;;;25.42;70.96
70254;BME280;57649;42.968;1.608;2023-06-22T12:25:00;97533.75;;;25.46;67.63
70254;BME280;57649;42.968;1.608;2023-06-22T12:27:25;97536.34;;;25.58;67.66
70254;BME280;57649;42.968;1.608;2023-06-22T12:29:51;97527.97;;;25.74;65.47
70254;BME280;57649;42.968;1.608;2023-06-22T12:32:16;97527.63;;;25.66;64.49
70254;BME280;57649;42.968;1.608;2023-06-22T12:34:43;97529.91;;;26.17;64.52
70254;BME280;57649;42.968;1.608;2023-06-22T12:37:08;97531.88;;;26.26;64.71
70254;BME280;57649;42.968;1.608;2023-06-22T12:39:34;97533.16;;;26.08;64.18
70254;BME280;57649;42.968;1.608;2023-06-22T12:41:59;97541.25;;;26.30;64.29
70254;BME280;57649;42.968;1.608;2023-06-22T12:44:25;97549.47;;;26.36;64.38
70254;BME280;57649;42.968;1.608;2023-06-22T12:46:50;97549.72;;;26.24;64.92
70254;BME280;57649;42.968;1.608;2023-06-22T12:49:16;97549.00;;;26.44;61.91
70254;BME280;57649;42.968;1.608;2023-06-22T12:51:42;97548.75;;;25.98;62.63
70254;BME280;57649;42.968;1.608;2023-06-22T12:54:08;97540.28;;;26.09;66.56